Time;durP1;ratioP1;P1;durP2;ratioP2;P2;SDS_P1;SDS_P2;PMS_P1;PMS_P2;Temp;Humidity;BMP_temperature;BMP_pressure;BME280_temperature;BME280_humidity;BME280_pressure;Samples;Min_cycle;Max_cycle;Signal;HPM_P1;HPM_P2
2022/06/09 00:07:09;;;;;;;0.20;0.00;;;20.30;99.90;;;;;;26175230;22;20197;-71
2022/06/09 00:17:13;;;;;;;0.20;0.00;;;20.50;99.90;;;;;;26177419;22;20175;-72
2022/06/09 00:27:18;;;;;;;0.20;0.10;;;20.70;99.90;;;;;;26175483;22;20191;-73
2022/06/09 00:37:22;;;;;;;0.20;0.10;;;20.80;99.90;;;;;;26150078;22;20188;-71
2022/06/09 00:47:31;;;;;;;0.20;0.00;;;21.00;99.90;;;;;;26150943;22;20323;-71
2022/06/09 00:57:38;;;;;;;0.20;0.10;;;21.00;99.90;;;;;;26175058;22;20183;-70
2022/06/09 01:07:47;;;;;;;0.20;0.00;;;21.00;99.90;;;;;;26147766;22;20175;-70
2022/06/09 01:17:57;;;;;;;0.20;0.00;;;20.90;99.90;;;;;;26147506;22;20191;-73
2022/06/09 01:28:31;;;;;;;0.20;0.10;;;20.70;99.90;;;;;;26145599;22;20187;-70
2022/06/09 01:38:47;;;;;;;0.20;0.00;;;20.60;99.90;;;;;;26148672;22;20205;-70
2022/06/09 01:48:55;;;;;;;0.20;0.10;;;20.60;99.90;;;;;;26172993;22;20159;-70
2022/06/09 01:59:06;;;;;;;0.20;0.00;;;20.50;99.90;;;;;;26169421;22;20402;-73
2022/06/09 02:09:16;;;;;;;0.20;0.00;;;20.50;99.90;;;;;;26143990;22;20226;-73
2022/06/09 02:19:23;;;;;;;0.20;0.10;;;20.70;99.90;;;;;;26173701;22;20271;-72
2022/06/09 02:29:27;;;;;;;0.20;0.10;;;20.60;99.90;;;;;;26143322;22;20211;-72
2022/06/09 02:39:32;;;;;;;0.20;0.10;;;20.50;99.90;;;;;;26146198;22;20190;-72
2022/06/09 02:49:36;;;;;;;0.20;0.10;;;20.50;99.90;;;;;;26170965;22;20188;-73
2022/06/09 02:59:41;;;;;;;0.20;0.00;;;20.50;99.90;;;;;;26171771;22;20183;-73
2022/06/09 03:09:45;;;;;;;0.20;0.10;;;20.50;99.90;;;;;;26170967;22;20163;-74
2022/06/09 03:19:50;;;;;;;0.20;0.00;;;20.70;99.90;;;;;;26142501;22;20179;-74
2022/06/09 03:29:54;;;;;;;0.20;0.00;;;20.70;99.90;;;;;;26171481;22;20191;-73
2022/06/09 03:39:59;;;;;;;0.20;0.00;;;20.70;99.90;;;;;;26169844;22;20190;-73
2022/06/09 03:50:04;;;;;;;0.20;0.00;;;20.70;99.90;;;;;;26171299;22;20199;-73
2022/06/09 04:00:14;;;;;;;0.20;0.00;;;20.40;99.90;;;;;;26143931;22;20191;-73
2022/06/09 04:10:20;;;;;;;0.20;0.10;;;20.30;99.90;;;;;;26151987;22;20175;-74
2022/06/09 04:20:27;;;;;;;0.20;0.00;;;20.30;99.90;;;;;;26150545;22;20163;-74
2022/06/09 04:30:31;;;;;;;0.20;0.00;;;20.10;99.90;;;;;;26147899;22;20212;-74
2022/06/09 04:40:39;;;;;;;0.20;0.10;;;20.00;99.90;;;;;;26147588;22;20163;-74
2022/06/09 04:50:43;;;;;;;0.20;0.10;;;20.10;99.90;;;;;;26144083;22;20198;-72
2022/06/09 05:00:48;;;;;;;0.20;0.10;;;20.20;99.90;;;;;;26175677;22;20360;-74
2022/06/09 05:10:52;;;;;;;0.20;0.00;;;20.20;99.90;;;;;;26170264;22;20183;-73
2022/06/09 05:20:58;;;;;;;0.20;0.10;;;20.40;99.90;;;;;;26174925;22;20171;-74
2022/06/09 05:31:03;;;;;;;0.20;0.00;;;20.50;99.90;;;;;;26172495;22;20203;-74
2022/06/09 06:38:42;;;;;;;0.20;0.00;;;22.40;99.90;;;;;;26029600;22;20203;-74
2022/06/09 06:48:47;;;;;;;0.20;0.00;;;22.90;99.90;;;;;;26037913;22;20243;-74
2022/06/09 06:58:52;;;;;;;0.20;0.00;;;23.00;99.90;;;;;;26037642;22;20191;-75
2022/06/09 07:08:56;;;;;;;0.20;0.00;;;22.80;99.90;;;;;;26010381;22;20161;-73
2022/06/09 07:19:01;;;;;;;0.20;0.10;;;22.40;99.90;;;;;;26035983;22;20188;-72
2022/06/09 07:29:05;;;;;;;0.20;0.00;;;22.40;99.90;;;;;;26037619;22;20159;-71
2022/06/09 07:39:10;;;;;;;0.20;0.00;;;22.30;99.90;;;;;;26045182;22;20196;-71
2022/06/09 07:49:14;;;;;;;0.20;0.00;;;22.50;99.90;;;;;;26044604;22;20194;-74
2022/06/09 07:59:20;;;;;;;0.20;0.10;;;22.70;99.90;;;;;;26044559;22;20207;-74
2022/06/09 08:09:24;;;;;;;0.20;0.00;;;22.80;99.90;;;;;;26018428;22;20161;-75
2022/06/09 08:19:29;;;;;;;0.20;0.00;;;22.70;99.90;;;;;;26044915;22;20206;-73
2022/06/09 08:29:33;;;;;;;0.20;0.00;;;22.80;99.90;;;;;;26043511;22;20164;-72
2022/06/09 08:39:38;;;;;;;0.20;0.00;;;22.80;99.90;;;;;;26016156;22;20213;-74
2022/06/09 08:49:57;;;;;;;0.20;0.00;;;22.90;99.90;;;;;;26042931;22;20205;-69
2022/06/09 09:00:04;;;;;;;0.20;0.00;;;22.90;99.90;;;;;;26016972;22;20180;-72
2022/06/09 09:10:20;;;;;;;0.20;0.00;;;23.20;99.90;;;;;;26041467;22;20232;-74
2022/06/09 09:20:30;;;;;;;0.20;0.00;;;23.40;99.90;;;;;;26040578;22;20188;-71
2022/06/09 09:30:40;;;;;;;0.20;0.00;;;23.10;99.90;;;;;;26037298;22;20161;-70
2022/06/09 09:40:48;;;;;;;0.20;0.00;;;23.30;99.90;;;;;;26007894;22;20214;-72
2022/06/09 09:50:54;;;;;;;0.20;0.00;;;23.80;99.90;;;;;;26030396;22;20199;-71
2022/06/09 10:01:03;;;;;;;0.20;0.10;;;24.00;99.90;;;;;;26029175;22;20274;-72
2022/06/09 10:22:20;;;;;;;0.20;0.00;;;24.10;99.90;;;;;;26002339;22;20184;-72
2022/06/09 10:32:47;;;;;;;0.20;0.00;;;24.90;99.90;;;;;;26027903;22;20218;-72
2022/06/09 10:42:57;;;;;;;0.20;0.00;;;25.00;99.90;;;;;;26025975;22;20167;-71
2022/06/09 11:03:30;;;;;;;0.20;0.00;;;25.70;99.90;;;;;;26027643;22;20167;-74
2022/06/09 11:14:01;;;;;;;0.20;0.00;;;25.60;99.90;;;;;;26022758;22;20192;-71
2022/06/09 11:24:31;;;;;;;0.20;0.03;;;26.00;99.90;;;;;;26023958;22;20208;-73
2022/06/09 11:34:59;;;;;;;0.20;0.00;;;26.30;99.90;;;;;;26023470;22;20195;-71
2022/06/09 11:45:23;;;;;;;0.20;0.00;;;26.60;99.90;;;;;;26005769;22;20172;-72
2022/06/09 12:05:57;;;;;;;0.20;0.10;;;27.80;99.90;;;;;;26028922;22;20176;-72
2022/06/09 12:16:04;;;;;;;0.20;0.00;;;28.60;99.90;;;;;;26033467;22;20212;-72
2022/06/09 12:26:43;;;;;;;0.20;0.00;;;28.70;99.90;;;;;;26015212;22;20167;-73
2022/06/09 12:36:52;;;;;;;0.20;0.10;;;28.80;99.90;;;;;;26042591;22;20206;-75
2022/06/09 12:46:59;;;;;;;0.20;0.03;;;28.90;99.90;;;;;;26042148;22;20174;-72
2022/06/09 12:57:07;;;;;;;0.20;0.10;;;28.90;99.90;;;;;;26034655;22;20207;-71
2022/06/09 13:07:22;;;;;;;0.20;0.00;;;28.60;99.90;;;;;;26001744;22;20164;-71
2022/06/09 13:17:29;;;;;;;0.20;0.00;;;29.60;99.90;;;;;;26029152;22;20188;-70
2022/06/09 13:27:35;;;;;;;0.20;0.00;;;29.40;99.90;;;;;;26024996;22;20836;-70
2022/06/09 13:37:42;;;;;;;0.20;0.00;;;31.00;99.90;;;;;;26001718;22;20207;-70
2022/06/09 13:48:13;;;;;;;0.20;0.00;;;30.60;99.90;;;;;;26023838;22;20152;-71
2022/06/09 13:58:17;;;;;;;0.20;0.00;;;30.80;99.90;;;;;;26025501;22;20199;-70
2022/06/09 14:08:24;;;;;;;0.20;0.00;;;30.00;99.90;;;;;;26024958;22;20220;-70
2022/06/09 14:18:30;;;;;;;0.20;0.00;;;30.80;99.90;;;;;;25997402;22;20214;-70
2022/06/09 14:28:37;;;;;;;0.20;0.00;;;30.50;99.90;;;;;;26021245;22;20178;-72
2022/06/09 14:38:41;;;;;;;0.20;0.00;;;30.90;99.90;;;;;;26000074;22;20204;-70
2022/06/09 14:48:46;;;;;;;0.20;0.00;;;31.10;99.90;;;;;;25995009;22;20179;-72
2022/06/09 14:58:51;;;;;;;0.20;0.00;;;31.00;99.90;;;;;;25998322;22;20188;-69
2022/06/09 15:08:57;;;;;;;0.20;0.00;;;31.40;99.90;;;;;;26022644;22;20247;-70
2022/06/09 15:19:01;;;;;;;0.20;0.00;;;31.00;99.90;;;;;;25992710;22;20224;-71
2022/06/09 15:29:07;;;;;;;0.20;0.00;;;30.80;99.90;;;;;;25993540;22;20160;-70
2022/06/09 15:39:10;;;;;;;0.20;0.00;;;30.60;99.90;;;;;;25990373;22;20208;-71
2022/06/09 15:49:15;;;;;;;0.20;0.00;;;30.80;99.90;;;;;;26020565;22;20185;-70
2022/06/09 15:59:19;;;;;;;0.20;0.00;;;31.10;99.90;;;;;;26026063;22;20191;-71
2022/06/09 16:09:25;;;;;;;0.20;0.00;;;30.40;99.90;;;;;;26003780;22;20179;-71
2022/06/09 16:19:28;;;;;;;0.20;0.10;;;30.00;99.90;;;;;;26028420;22;20184;-71
2022/06/09 16:29:34;;;;;;;0.20;0.00;;;29.80;99.90;;;;;;26029309;22;20164;-71
2022/06/09 16:39:38;;;;;;;0.20;0.00;;;29.40;99.90;;;;;;25997661;22;20196;-71
2022/06/09 16:49:44;;;;;;;0.20;0.10;;;29.10;99.90;;;;;;25998793;22;20189;-71
2022/06/09 16:59:48;;;;;;;0.20;0.00;;;28.70;99.90;;;;;;25996960;22;20184;-73
2022/06/09 17:09:53;;;;;;;0.20;0.00;;;29.30;99.90;;;;;;25998076;22;20168;-71
2022/06/09 17:19:57;;;;;;;0.20;0.00;;;29.00;99.90;;;;;;26028196;22;20235;-71
2022/06/09 17:30:04;;;;;;;0.20;0.00;;;30.00;99.90;;;;;;25978172;22;20176;-72
2022/06/09 17:40:10;;;;;;;0.20;0.00;;;30.10;99.90;;;;;;26029216;22;20196;-72
2022/06/09 17:50:17;;;;;;;0.20;0.03;;;29.90;99.90;;;;;;26001561;22;20195;-70
2022/06/09 18:00:25;;;;;;;0.20;0.00;;;29.40;99.90;;;;;;25999271;22;20247;-72
2022/06/09 18:10:32;;;;;;;0.20;0.00;;;29.00;99.90;;;;;;26021144;22;20152;-70
2022/06/09 18:20:37;;;;;;;0.20;0.00;;;28.60;99.90;;;;;;26022105;22;20184;-73
2022/06/09 18:30:44;;;;;;;0.20;0.00;;;28.20;99.90;;;;;;26021743;22;20164;-72
2022/06/09 18:40:49;;;;;;;0.20;0.00;;;27.50;99.90;;;;;;25995077;22;20207;-72
2022/06/09 18:50:55;;;;;;;0.20;0.00;;;26.80;99.90;;;;;;26022796;22;20207;-72
2022/06/09 19:00:59;;;;;;;0.20;0.00;;;25.40;99.90;;;;;;26019253;22;20255;-70
2022/06/09 19:11:06;;;;;;;0.20;0.00;;;24.10;99.90;;;;;;26020558;22;20187;-73
2022/06/09 19:21:10;;;;;;;0.20;0.00;;;23.90;99.90;;;;;;26019450;22;20187;-73
2022/06/09 19:31:15;;;;;;;0.20;0.00;;;23.40;99.90;;;;;;26024168;22;20164;-73
2022/06/09 19:41:19;;;;;;;0.20;0.00;;;23.30;99.90;;;;;;26029895;22;20207;-72
2022/06/09 19:51:26;;;;;;;0.20;0.00;;;23.30;99.90;;;;;;26004591;22;20184;-73
2022/06/09 20:01:30;;;;;;;0.20;0.00;;;23.10;99.90;;;;;;26004194;22;20199;-72
2022/06/09 20:11:36;;;;;;;0.20;0.08;;;22.90;99.90;;;;;;26004169;22;20171;-72
2022/06/09 20:21:40;;;;;;;0.20;0.00;;;22.80;99.90;;;;;;26035286;22;20239;-71
2022/06/09 20:31:45;;;;;;;0.20;0.00;;;22.60;99.90;;;;;;26031689;22;20171;-71
2022/06/09 20:41:49;;;;;;;0.20;0.00;;;22.70;99.90;;;;;;26033397;22;20620;-71
